sensor_id;sensor_type;location;lat;lon;timestamp;P1;durP1;ratioP1;P2;durP2;ratioP2
61330;SDS011;57640;52.472;-1.950;2023-05-10T00:01:21;7.03;;;3.85;;
61330;SDS011;57640;52.472;-1.950;2023-05-10T00:04:29;7.40;;;4.18;;
61330;SDS011;57640;52.472;-1.950;2023-05-10T00:07:35;6.38;;;3.60;;
61330;SDS011;57640;52.472;-1.950;2023-05-10T00:10:41;5.70;;;3.70;;
61330;SDS011;57640;52.472;-1.950;2023-05-10T00:13:47;6.80;;;3.60;;
61330;SDS011;57640;52.472;-1.950;2023-05-10T00:16:52;5.45;;;3.45;;
61330;SDS011;57640;52.472;-1.950;2023-05-10T00:20:00;5.82;;;3.67;;
61330;SDS011;57640;52.472;-1.950;2023-05-10T00:23:07;7.85;;;3.58;;
61330;SDS011;57640;52.472;-1.950;2023-05-10T00:26:12;5.63;;;3.17;;
61330;SDS011;57640;52.472;-1.950;2023-05-10T00:29:18;5.40;;;3.38;;
61330;SDS011;57640;52.472;-1.950;2023-05-10T00:32:24;6.43;;;3.30;;
61330;SDS011;57640;52.472;-1.950;2023-05-10T00:35:32;6.63;;;3.17;;
61330;SDS011;57640;52.472;-1.950;2023-05-10T00:38:37;7.85;;;3.47;;
61330;SDS011;57640;52.472;-1.950;2023-05-10T00:41:43;5.95;;;3.08;;
61330;SDS011;57640;52.472;-1.950;2023-05-10T00:44:48;6.32;;;2.95;;
61330;SDS011;57640;52.472;-1.950;2023-05-10T00:47:53;6.35;;;2.78;;
61330;SDS011;57640;52.472;-1.950;2023-05-10T00:51:01;4.88;;;2.83;;
61330;SDS011;57640;52.472;-1.950;2023-05-10T00:54:07;5.78;;;2.83;;
61330;SDS011;57640;52.472;-1.950;2023-05-10T00:57:12;6.18;;;3.00;;
61330;SDS011;57640;52.472;-1.950;2023-05-10T01:00:18;7.97;;;2.83;;
61330;SDS011;57640;52.472;-1.950;2023-05-10T01:03:24;5.85;;;2.63;;
61330;SDS011;57640;52.472;-1.950;2023-05-10T01:06:32;6.25;;;2.70;;
61330;SDS011;57640;52.472;-1.950;2023-05-10T01:09:37;6.88;;;2.80;;
61330;SDS011;57640;52.472;-1.950;2023-05-10T01:12:43;5.88;;;2.70;;
61330;SDS011;57640;52.472;-1.950;2023-05-10T01:15:50;6.78;;;2.72;;
61330;SDS011;57640;52.472;-1.950;2023-05-10T01:18:55;6.03;;;3.03;;
61330;SDS011;57640;52.472;-1.950;2023-05-10T01:22:05;4.75;;;2.70;;
61330;SDS011;57640;52.472;-1.950;2023-05-10T01:25:12;4.93;;;2.60;;
61330;SDS011;57640;52.472;-1.950;2023-05-10T01:32:05;6.15;;;2.30;;
61330;SDS011;57640;52.472;-1.950;2023-05-10T01:35:15;6.03;;;3.00;;
61330;SDS011;57640;52.472;-1.950;2023-05-10T01:38:22;6.63;;;2.67;;
61330;SDS011;57640;52.472;-1.950;2023-05-10T01:41:35;5.43;;;2.78;;
61330;SDS011;57640;52.472;-1.950;2023-05-10T01:44:42;7.22;;;2.78;;
61330;SDS011;57640;52.472;-1.950;2023-05-10T01:47:57;4.57;;;2.53;;
61330;SDS011;57640;52.472;-1.950;2023-05-10T01:51:03;5.05;;;2.58;;
61330;SDS011;57640;52.472;-1.950;2023-05-10T01:54:10;5.13;;;2.70;;
61330;SDS011;57640;52.472;-1.950;2023-05-10T01:57:17;5.88;;;2.70;;
61330;SDS011;57640;52.472;-1.950;2023-05-10T02:00:23;5.50;;;2.50;;
61330;SDS011;57640;52.472;-1.950;2023-05-10T02:03:32;5.60;;;2.58;;
61330;SDS011;57640;52.472;-1.950;2023-05-10T02:06:40;4.07;;;2.00;;
61330;SDS011;57640;52.472;-1.950;2023-05-10T02:09:50;4.70;;;2.53;;
61330;SDS011;57640;52.472;-1.950;2023-05-10T02:12:58;4.72;;;2.40;;
61330;SDS011;57640;52.472;-1.950;2023-05-10T02:16:05;4.25;;;2.30;;
61330;SDS011;57640;52.472;-1.950;2023-05-10T02:19:13;5.93;;;2.58;;
61330;SDS011;57640;52.472;-1.950;2023-05-10T02:25:24;5.80;;;2.50;;
61330;SDS011;57640;52.472;-1.950;2023-05-10T02:28:30;4.45;;;2.58;;
61330;SDS011;57640;52.472;-1.950;2023-05-10T02:31:36;4.57;;;2.05;;
61330;SDS011;57640;52.472;-1.950;2023-05-10T02:34:44;5.68;;;2.30;;
61330;SDS011;57640;52.472;-1.950;2023-05-10T02:37:54;4.53;;;2.17;;
61330;SDS011;57640;52.472;-1.950;2023-05-10T02:40:59;4.47;;;2.22;;
61330;SDS011;57640;52.472;-1.950;2023-05-10T02:44:05;3.47;;;2.15;;
61330;SDS011;57640;52.472;-1.950;2023-05-10T02:47:11;6.28;;;2.38;;
61330;SDS011;57640;52.472;-1.950;2023-05-10T02:50:19;4.43;;;2.10;;
61330;SDS011;57640;52.472;-1.950;2023-05-10T02:53:30;3.70;;;2.22;;
61330;SDS011;57640;52.472;-1.950;2023-05-10T02:56:36;4.60;;;1.95;;
61330;SDS011;57640;52.472;-1.950;2023-05-10T02:59:45;3.90;;;1.90;;
61330;SDS011;57640;52.472;-1.950;2023-05-10T03:02:51;4.45;;;2.00;;
61330;SDS011;57640;52.472;-1.950;2023-05-10T03:05:59;4.25;;;2.35;;
61330;SDS011;57640;52.472;-1.950;2023-05-10T03:09:04;5.70;;;2.03;;
61330;SDS011;57640;52.472;-1.950;2023-05-10T03:12:13;4.80;;;2.05;;
61330;SDS011;57640;52.472;-1.950;2023-05-10T03:15:21;4.90;;;1.98;;
61330;SDS011;57640;52.472;-1.950;2023-05-10T03:18:32;4.20;;;1.80;;
61330;SDS011;57640;52.472;-1.950;2023-05-10T03:21:41;3.80;;;1.83;;
61330;SDS011;57640;52.472;-1.950;2023-05-10T03:24:48;3.78;;;1.67;;
61330;SDS011;57640;52.472;-1.950;2023-05-10T03:27:54;3.35;;;1.77;;
61330;SDS011;57640;52.472;-1.950;2023-05-10T03:30:59;5.47;;;1.90;;
61330;SDS011;57640;52.472;-1.950;2023-05-10T03:34:05;4.47;;;1.80;;
61330;SDS011;57640;52.472;-1.950;2023-05-10T03:37:13;3.65;;;1.77;;
61330;SDS011;57640;52.472;-1.950;2023-05-10T03:40:18;3.47;;;1.60;;
61330;SDS011;57640;52.472;-1.950;2023-05-10T03:43:23;4.60;;;1.60;;
61330;SDS011;57640;52.472;-1.950;2023-05-10T03:46:29;3.55;;;1.65;;
61330;SDS011;57640;52.472;-1.950;2023-05-10T03:49:34;4.10;;;1.70;;
61330;SDS011;57640;52.472;-1.950;2023-05-10T03:52:42;3.35;;;1.50;;
61330;SDS011;57640;52.472;-1.950;2023-05-10T03:55:47;3.70;;;1.60;;
61330;SDS011;57640;52.472;-1.950;2023-05-10T03:58:53;4.15;;;1.60;;
61330;SDS011;57640;52.472;-1.950;2023-05-10T04:01:58;3.67;;;1.60;;
61330;SDS011;57640;52.472;-1.950;2023-05-10T04:05:04;2.78;;;1.48;;
61330;SDS011;57640;52.472;-1.950;2023-05-10T04:08:12;3.42;;;1.60;;
61330;SDS011;57640;52.472;-1.950;2023-05-10T04:11:18;4.20;;;1.70;;
61330;SDS011;57640;52.472;-1.950;2023-05-10T04:14:24;3.55;;;1.70;;
61330;SDS011;57640;52.472;-1.950;2023-05-10T04:17:29;3.47;;;1.73;;
61330;SDS011;57640;52.472;-1.950;2023-05-10T04:20:34;2.63;;;1.35;;
61330;SDS011;57640;52.472;-1.950;2023-05-10T04:23:42;4.57;;;1.40;;
61330;SDS011;57640;52.472;-1.950;2023-05-10T04:26:48;3.58;;;1.60;;
61330;SDS011;57640;52.472;-1.950;2023-05-10T04:29:53;3.25;;;1.55;;
61330;SDS011;57640;52.472;-1.950;2023-05-10T04:32:58;3.35;;;1.40;;
61330;SDS011;57640;52.472;-1.950;2023-05-10T04:36:04;4.00;;;1.40;;
61330;SDS011;57640;52.472;-1.950;2023-05-10T04:39:12;4.13;;;1.50;;
61330;SDS011;57640;52.472;-1.950;2023-05-10T04:42:18;3.80;;;1.40;;
61330;SDS011;57640;52.472;-1.950;2023-05-10T04:45:24;3.08;;;1.33;;
61330;SDS011;57640;52.472;-1.950;2023-05-10T04:48:29;4.53;;;1.73;;
61330;SDS011;57640;52.472;-1.950;2023-05-10T04:51:34;3.22;;;1.50;;
61330;SDS011;57640;52.472;-1.950;2023-05-10T04:54:42;2.97;;;1.58;;
61330;SDS011;57640;52.472;-1.950;2023-05-10T04:57:48;3.72;;;1.48;;
61330;SDS011;57640;52.472;-1.950;2023-05-10T05:00:53;3.22;;;1.40;;
61330;SDS011;57640;52.472;-1.950;2023-05-10T05:03:58;3.47;;;1.38;;
61330;SDS011;57640;52.472;-1.950;2023-05-10T05:07:04;3.80;;;1.60;;
61330;SDS011;57640;52.472;-1.950;2023-05-10T05:10:12;4.82;;;1.75;;
61330;SDS011;57640;52.472;-1.950;2023-05-10T05:13:17;4.63;;;1.48;;
61330;SDS011;57640;52.472;-1.950;2023-05-10T05:16:23;2.90;;;1.45;;
61330;SDS011;57640;52.472;-1.950;2023-05-10T05:19:28;3.65;;;1.65;;
61330;SDS011;57640;52.472;-1.950;2023-05-10T05:22:35;5.07;;;1.80;;
61330;SDS011;57640;52.472;-1.950;2023-05-10T05:25:47;3.93;;;1.67;;
61330;SDS011;57640;52.472;-1.950;2023-05-10T05:28:52;3.47;;;1.40;;
61330;SDS011;57640;52.472;-1.950;2023-05-10T05:31:58;3.03;;;1.70;;
61330;SDS011;57640;52.472;-1.950;2023-05-10T05:35:03;1.75;;;1.38;;
61330;SDS011;57640;52.472;-1.950;2023-05-10T05:38:09;3.45;;;1.58;;
61330;SDS011;57640;52.472;-1.950;2023-05-10T05:41:17;3.75;;;1.50;;
61330;SDS011;57640;52.472;-1.950;2023-05-10T05:44:23;3.25;;;1.40;;
61330;SDS011;57640;52.472;-1.950;2023-05-10T05:47:31;3.97;;;1.40;;
61330;SDS011;57640;52.472;-1.950;2023-05-10T05:50:36;3.33;;;1.58;;
61330;SDS011;57640;52.472;-1.950;2023-05-10T05:53:41;4.50;;;1.60;;
61330;SDS011;57640;52.472;-1.950;2023-05-10T05:56:50;3.35;;;1.50;;
61330;SDS011;57640;52.472;-1.950;2023-05-10T05:59:55;5.97;;;1.70;;
61330;SDS011;57640;52.472;-1.950;2023-05-10T06:03:00;4.43;;;1.65;;
61330;SDS011;57640;52.472;-1.950;2023-05-10T06:06:06;2.75;;;1.38;;
61330;SDS011;57640;52.472;-1.950;2023-05-10T06:09:11;3.08;;;1.50;;
61330;SDS011;57640;52.472;-1.950;2023-05-10T06:12:19;3.53;;;1.25;;
61330;SDS011;57640;52.472;-1.950;2023-05-10T06:15:25;2.08;;;1.00;;
61330;SDS011;57640;52.472;-1.950;2023-05-10T06:18:30;1.85;;;1.15;;
61330;SDS011;57640;52.472;-1.950;2023-05-10T06:21:35;2.63;;;1.20;;
61330;SDS011;57640;52.472;-1.950;2023-05-10T06:24:41;2.58;;;1.17;;
61330;SDS011;57640;52.472;-1.950;2023-05-10T06:27:49;1.45;;;1.05;;
61330;SDS011;57640;52.472;-1.950;2023-05-10T06:30:59;2.58;;;1.30;;
61330;SDS011;57640;52.472;-1.950;2023-05-10T06:34:04;2.58;;;1.17;;
61330;SDS011;57640;52.472;-1.950;2023-05-10T06:37:10;2.33;;;1.23;;
61330;SDS011;57640;52.472;-1.950;2023-05-10T06:40:16;3.42;;;1.20;;
61330;SDS011;57640;52.472;-1.950;2023-05-10T06:43:24;3.67;;;1.52;;
61330;SDS011;57640;52.472;-1.950;2023-05-10T06:46:30;2.90;;;1.38;;
61330;SDS011;57640;52.472;-1.950;2023-05-10T06:49:36;2.00;;;1.20;;
61330;SDS011;57640;52.472;-1.950;2023-05-10T06:52:42;4.30;;;1.70;;
61330;SDS011;57640;52.472;-1.950;2023-05-10T06:55:49;2.63;;;1.27;;
61330;SDS011;57640;52.472;-1.950;2023-05-10T06:58:56;3.40;;;1.52;;
61330;SDS011;57640;52.472;-1.950;2023-05-10T07:02:02;1.80;;;1.20;;
61330;SDS011;57640;52.472;-1.950;2023-05-10T07:05:08;3.22;;;1.33;;
61330;SDS011;57640;52.472;-1.950;2023-05-10T07:08:14;2.25;;;1.20;;
61330;SDS011;57640;52.472;-1.950;2023-05-10T07:11:20;2.67;;;1.30;;
61330;SDS011;57640;52.472;-1.950;2023-05-10T07:14:28;1.58;;;0.98;;
61330;SDS011;57640;52.472;-1.950;2023-05-10T07:17:33;3.72;;;1.20;;
61330;SDS011;57640;52.472;-1.950;2023-05-10T07:20:41;3.28;;;1.20;;
61330;SDS011;57640;52.472;-1.950;2023-05-10T07:23:47;2.35;;;1.63;;
61330;SDS011;57640;52.472;-1.950;2023-05-10T07:26:52;3.60;;;1.50;;
61330;SDS011;57640;52.472;-1.950;2023-05-10T07:30:00;4.03;;;1.30;;
61330;SDS011;57640;52.472;-1.950;2023-05-10T07:33:05;2.65;;;1.30;;
61330;SDS011;57640;52.472;-1.950;2023-05-10T07:36:11;3.17;;;1.42;;
61330;SDS011;57640;52.472;-1.950;2023-05-10T07:39:16;2.63;;;1.45;;
61330;SDS011;57640;52.472;-1.950;2023-05-10T07:42:22;3.00;;;1.20;;
61330;SDS011;57640;52.472;-1.950;2023-05-10T07:45:30;1.75;;;1.10;;
61330;SDS011;57640;52.472;-1.950;2023-05-10T07:48:36;2.90;;;1.30;;
61330;SDS011;57640;52.472;-1.950;2023-05-10T07:51:41;2.38;;;1.35;;
61330;SDS011;57640;52.472;-1.950;2023-05-10T07:54:47;1.65;;;1.05;;
61330;SDS011;57640;52.472;-1.950;2023-05-10T07:57:52;1.70;;;0.98;;
61330;SDS011;57640;52.472;-1.950;2023-05-10T08:01:01;2.60;;;1.25;;
61330;SDS011;57640;52.472;-1.950;2023-05-10T08:04:06;3.45;;;1.20;;
61330;SDS011;57640;52.472;-1.950;2023-05-10T08:07:11;2.20;;;1.30;;
61330;SDS011;57640;52.472;-1.950;2023-05-10T08:10:17;3.92;;;1.38;;
61330;SDS011;57640;52.472;-1.950;2023-05-10T08:13:22;3.88;;;1.40;;
61330;SDS011;57640;52.472;-1.950;2023-05-10T08:16:30;2.95;;;1.40;;
61330;SDS011;57640;52.472;-1.950;2023-05-10T08:22:41;3.65;;;1.40;;
61330;SDS011;57640;52.472;-1.950;2023-05-10T08:25:47;3.08;;;1.60;;
61330;SDS011;57640;52.472;-1.950;2023-05-10T08:28:52;3.50;;;1.52;;
61330;SDS011;57640;52.472;-1.950;2023-05-10T08:32:00;3.55;;;1.42;;
61330;SDS011;57640;52.472;-1.950;2023-05-10T08:35:06;3.25;;;1.48;;
61330;SDS011;57640;52.472;-1.950;2023-05-10T08:38:11;3.05;;;1.30;;
61330;SDS011;57640;52.472;-1.950;2023-05-10T08:41:18;2.75;;;1.30;;
61330;SDS011;57640;52.472;-1.950;2023-05-10T08:44:24;2.53;;;1.35;;
61330;SDS011;57640;52.472;-1.950;2023-05-10T08:47:32;3.03;;;1.30;;
61330;SDS011;57640;52.472;-1.950;2023-05-10T08:50:38;2.38;;;1.20;;
61330;SDS011;57640;52.472;-1.950;2023-05-10T08:53:44;3.20;;;1.40;;
61330;SDS011;57640;52.472;-1.950;2023-05-10T08:56:50;4.45;;;1.27;;
61330;SDS011;57640;52.472;-1.950;2023-05-10T08:59:55;4.43;;;1.60;;
61330;SDS011;57640;52.472;-1.950;2023-05-10T09:03:03;2.97;;;1.63;;
61330;SDS011;57640;52.472;-1.950;2023-05-10T09:09:14;4.32;;;1.30;;
61330;SDS011;57640;52.472;-1.950;2023-05-10T09:12:19;3.38;;;1.40;;
61330;SDS011;57640;52.472;-1.950;2023-05-10T09:15:25;2.53;;;1.30;;
61330;SDS011;57640;52.472;-1.950;2023-05-10T09:18:33;2.40;;;1.23;;
61330;SDS011;57640;52.472;-1.950;2023-05-10T09:21:38;3.83;;;1.60;;
61330;SDS011;57640;52.472;-1.950;2023-05-10T09:24:43;3.05;;;1.27;;
61330;SDS011;57640;52.472;-1.950;2023-05-10T09:27:49;2.95;;;1.30;;
61330;SDS011;57640;52.472;-1.950;2023-05-10T09:30:54;3.83;;;1.30;;
61330;SDS011;57640;52.472;-1.950;2023-05-10T09:34:03;1.98;;;1.30;;
61330;SDS011;57640;52.472;-1.950;2023-05-10T09:37:08;3.60;;;1.20;;
61330;SDS011;57640;52.472;-1.950;2023-05-10T09:40:14;3.17;;;1.30;;
61330;SDS011;57640;52.472;-1.950;2023-05-10T09:43:20;3.17;;;1.20;;
61330;SDS011;57640;52.472;-1.950;2023-05-10T09:46:25;4.90;;;1.65;;
61330;SDS011;57640;52.472;-1.950;2023-05-10T09:49:33;4.50;;;1.30;;
61330;SDS011;57640;52.472;-1.950;2023-05-10T09:52:48;2.13;;;1.05;;
61330;SDS011;57640;52.472;-1.950;2023-05-10T09:55:54;3.75;;;1.42;;
61330;SDS011;57640;52.472;-1.950;2023-05-10T09:59:01;1.88;;;0.93;;
61330;SDS011;57640;52.472;-1.950;2023-05-10T10:02:07;2.60;;;1.10;;
61330;SDS011;57640;52.472;-1.950;2023-05-10T10:05:15;2.15;;;1.20;;
61330;SDS011;57640;52.472;-1.950;2023-05-10T10:08:21;4.13;;;1.30;;
61330;SDS011;57640;52.472;-1.950;2023-05-10T10:11:26;2.53;;;1.20;;
61330;SDS011;57640;52.472;-1.950;2023-05-10T10:14:32;2.55;;;1.15;;
61330;SDS011;57640;52.472;-1.950;2023-05-10T10:17:37;3.50;;;1.10;;
61330;SDS011;57640;52.472;-1.950;2023-05-10T10:20:46;2.80;;;1.20;;
61330;SDS011;57640;52.472;-1.950;2023-05-10T10:23:52;1.58;;;1.00;;
61330;SDS011;57640;52.472;-1.950;2023-05-10T10:26:59;2.20;;;1.13;;
61330;SDS011;57640;52.472;-1.950;2023-05-10T10:30:10;2.15;;;1.10;;
61330;SDS011;57640;52.472;-1.950;2023-05-10T10:33:24;2.25;;;1.10;;
61330;SDS011;57640;52.472;-1.950;2023-05-10T10:36:42;3.45;;;1.17;;
61330;SDS011;57640;52.472;-1.950;2023-05-10T10:39:48;2.42;;;1.10;;
61330;SDS011;57640;52.472;-1.950;2023-05-10T10:42:54;3.38;;;1.10;;
61330;SDS011;57640;52.472;-1.950;2023-05-10T10:46:09;3.10;;;0.90;;
61330;SDS011;57640;52.472;-1.950;2023-05-10T10:49:15;1.88;;;1.00;;
61330;SDS011;57640;52.472;-1.950;2023-05-10T10:52:23;2.63;;;1.00;;
61330;SDS011;57640;52.472;-1.950;2023-05-10T10:55:30;1.92;;;1.08;;
61330;SDS011;57640;52.472;-1.950;2023-05-10T10:58:36;2.97;;;1.17;;
61330;SDS011;57640;52.472;-1.950;2023-05-10T11:01:42;2.08;;;1.05;;
61330;SDS011;57640;52.472;-1.950;2023-05-10T11:04:48;1.73;;;1.10;;
61330;SDS011;57640;52.472;-1.950;2023-05-10T11:07:56;2.42;;;1.10;;
61330;SDS011;57640;52.472;-1.950;2023-05-10T11:11:02;1.70;;;0.95;;
61330;SDS011;57640;52.472;-1.950;2023-05-10T11:14:09;1.95;;;1.20;;
61330;SDS011;57640;52.472;-1.950;2023-05-10T11:17:24;2.13;;;0.90;;
61330;SDS011;57640;52.472;-1.950;2023-05-10T11:20:33;2.35;;;1.10;;
61330;SDS011;57640;52.472;-1.950;2023-05-10T11:23:53;2.05;;;1.10;;
61330;SDS011;57640;52.472;-1.950;2023-05-10T11:26:59;1.88;;;0.90;;
61330;SDS011;57640;52.472;-1.950;2023-05-10T11:30:05;2.03;;;1.10;;
61330;SDS011;57640;52.472;-1.950;2023-05-10T11:33:14;1.42;;;1.05;;
61330;SDS011;57640;52.472;-1.950;2023-05-10T11:36:20;1.70;;;1.00;;
61330;SDS011;57640;52.472;-1.950;2023-05-10T11:39:29;1.35;;;0.82;;
61330;SDS011;57640;52.472;-1.950;2023-05-10T11:42:36;2.28;;;1.20;;
61330;SDS011;57640;52.472;-1.950;2023-05-10T11:45:42;2.03;;;1.10;;
61330;SDS011;57640;52.472;-1.950;2023-05-10T11:48:48;2.20;;;1.13;;
61330;SDS011;57640;52.472;-1.950;2023-05-10T11:52:03;1.90;;;1.13;;
61330;SDS011;57640;52.472;-1.950;2023-05-10T11:55:11;1.65;;;1.10;;
61330;SDS011;57640;52.472;-1.950;2023-05-10T11:58:17;2.20;;;1.05;;
61330;SDS011;57640;52.472;-1.950;2023-05-10T12:01:25;1.07;;;0.80;;
61330;SDS011;57640;52.472;-1.950;2023-05-10T12:04:31;1.80;;;0.98;;
61330;SDS011;57640;52.472;-1.950;2023-05-10T12:07:36;1.55;;;1.00;;
61330;SDS011;57640;52.472;-1.950;2023-05-10T12:10:44;3.30;;;1.10;;
61330;SDS011;57640;52.472;-1.950;2023-05-10T12:13:50;1.52;;;0.80;;
61330;SDS011;57640;52.472;-1.950;2023-05-10T12:16:56;1.55;;;0.90;;
61330;SDS011;57640;52.472;-1.950;2023-05-10T12:20:12;2.13;;;1.10;;
61330;SDS011;57640;52.472;-1.950;2023-05-10T12:23:18;2.75;;;1.15;;
61330;SDS011;57640;52.472;-1.950;2023-05-10T12:26:27;2.05;;;0.80;;
61330;SDS011;57640;52.472;-1.950;2023-05-10T12:29:32;1.17;;;0.80;;
61330;SDS011;57640;52.472;-1.950;2023-05-10T12:32:38;1.55;;;1.00;;
61330;SDS011;57640;52.472;-1.950;2023-05-10T12:35:44;2.53;;;0.90;;
61330;SDS011;57640;52.472;-1.950;2023-05-10T12:38:50;1.80;;;0.80;;
61330;SDS011;57640;52.472;-1.950;2023-05-10T12:41:58;1.63;;;0.90;;
61330;SDS011;57640;52.472;-1.950;2023-05-10T12:45:04;1.92;;;0.80;;
61330;SDS011;57640;52.472;-1.950;2023-05-10T12:48:11;1.67;;;1.10;;
61330;SDS011;57640;52.472;-1.950;2023-05-10T12:51:17;1.50;;;0.82;;
61330;SDS011;57640;52.472;-1.950;2023-05-10T12:54:24;1.40;;;0.95;;
61330;SDS011;57640;52.472;-1.950;2023-05-10T12:57:32;1.85;;;0.80;;
61330;SDS011;57640;52.472;-1.950;2023-05-10T13:00:38;1.92;;;1.00;;
61330;SDS011;57640;52.472;-1.950;2023-05-10T13:03:43;1.63;;;1.00;;
61330;SDS011;57640;52.472;-1.950;2023-05-10T13:06:48;2.25;;;0.90;;
61330;SDS011;57640;52.472;-1.950;2023-05-10T13:09:54;2.65;;;1.00;;
61330;SDS011;57640;52.472;-1.950;2023-05-10T13:13:03;1.55;;;1.00;;
61330;SDS011;57640;52.472;-1.950;2023-05-10T13:16:08;5.97;;;5.35;;
61330;SDS011;57640;52.472;-1.950;2023-05-10T13:19:15;59.55;;;47.75;;
61330;SDS011;57640;52.472;-1.950;2023-05-10T13:22:20;94.60;;;74.78;;
61330;SDS011;57640;52.472;-1.950;2023-05-10T13:25:26;97.75;;;83.72;;
61330;SDS011;57640;52.472;-1.950;2023-05-10T13:28:34;80.85;;;67.00;;
61330;SDS011;57640;52.472;-1.950;2023-05-10T13:31:41;68.97;;;55.03;;
61330;SDS011;57640;52.472;-1.950;2023-05-10T13:34:46;54.03;;;46.25;;
61330;SDS011;57640;52.472;-1.950;2023-05-10T13:37:51;50.45;;;43.47;;
61330;SDS011;57640;52.472;-1.950;2023-05-10T13:40:59;48.97;;;41.65;;
61330;SDS011;57640;52.472;-1.950;2023-05-10T13:44:07;51.47;;;42.10;;
61330;SDS011;57640;52.472;-1.950;2023-05-10T13:47:14;42.35;;;37.20;;
61330;SDS011;57640;52.472;-1.950;2023-05-10T13:50:20;45.95;;;38.40;;
61330;SDS011;57640;52.472;-1.950;2023-05-10T13:53:25;44.00;;;37.17;;
61330;SDS011;57640;52.472;-1.950;2023-05-10T13:56:30;40.58;;;34.83;;
61330;SDS011;57640;52.472;-1.950;2023-05-10T13:59:38;40.58;;;35.55;;
61330;SDS011;57640;52.472;-1.950;2023-05-10T14:02:44;35.53;;;29.67;;
61330;SDS011;57640;52.472;-1.950;2023-05-10T14:05:49;29.38;;;25.58;;
61330;SDS011;57640;52.472;-1.950;2023-05-10T14:08:54;29.05;;;25.67;;
61330;SDS011;57640;52.472;-1.950;2023-05-10T14:12:00;26.40;;;22.98;;
61330;SDS011;57640;52.472;-1.950;2023-05-10T14:15:09;22.60;;;20.13;;
61330;SDS011;57640;52.472;-1.950;2023-05-10T14:21:19;24.17;;;18.83;;
61330;SDS011;57640;52.472;-1.950;2023-05-10T14:24:25;19.58;;;16.90;;
61330;SDS011;57640;52.472;-1.950;2023-05-10T14:27:30;19.85;;;16.73;;
61330;SDS011;57640;52.472;-1.950;2023-05-10T14:30:38;17.50;;;14.00;;
61330;SDS011;57640;52.472;-1.950;2023-05-10T14:33:43;15.38;;;13.27;;
61330;SDS011;57640;52.472;-1.950;2023-05-10T14:36:49;15.40;;;13.23;;
61330;SDS011;57640;52.472;-1.950;2023-05-10T14:39:54;15.82;;;13.73;;
61330;SDS011;57640;52.472;-1.950;2023-05-10T14:43:00;13.88;;;12.43;;
61330;SDS011;57640;52.472;-1.950;2023-05-10T14:46:08;11.25;;;9.55;;
61330;SDS011;57640;52.472;-1.950;2023-05-10T14:49:13;10.55;;;8.77;;
61330;SDS011;57640;52.472;-1.950;2023-05-10T14:52:19;9.88;;;8.32;;
61330;SDS011;57640;52.472;-1.950;2023-05-10T14:55:24;8.23;;;7.00;;
61330;SDS011;57640;52.472;-1.950;2023-05-10T14:58:29;7.63;;;6.22;;
61330;SDS011;57640;52.472;-1.950;2023-05-10T15:01:37;7.18;;;6.18;;
61330;SDS011;57640;52.472;-1.950;2023-05-10T15:04:44;7.43;;;6.38;;
61330;SDS011;57640;52.472;-1.950;2023-05-10T15:07:49;7.82;;;5.72;;
61330;SDS011;57640;52.472;-1.950;2023-05-10T15:10:55;6.43;;;5.18;;
61330;SDS011;57640;52.472;-1.950;2023-05-10T15:14:00;5.43;;;4.90;;
61330;SDS011;57640;52.472;-1.950;2023-05-10T15:17:10;5.28;;;4.35;;
61330;SDS011;57640;52.472;-1.950;2023-05-10T15:20:16;6.00;;;3.97;;
61330;SDS011;57640;52.472;-1.950;2023-05-10T15:23:21;6.18;;;4.10;;
61330;SDS011;57640;52.472;-1.950;2023-05-10T15:26:27;4.25;;;3.78;;
61330;SDS011;57640;52.472;-1.950;2023-05-10T15:29:32;4.32;;;3.60;;
61330;SDS011;57640;52.472;-1.950;2023-05-10T15:32:40;4.78;;;3.38;;
61330;SDS011;57640;52.472;-1.950;2023-05-10T15:35:45;4.53;;;2.97;;
61330;SDS011;57640;52.472;-1.950;2023-05-10T15:38:51;4.75;;;2.60;;
61330;SDS011;57640;52.472;-1.950;2023-05-10T15:41:56;5.38;;;2.75;;
61330;SDS011;57640;52.472;-1.950;2023-05-10T15:45:04;3.63;;;2.40;;
61330;SDS011;57640;52.472;-1.950;2023-05-10T15:48:12;4.47;;;2.72;;
61330;SDS011;57640;52.472;-1.950;2023-05-10T15:51:17;2.90;;;2.28;;
61330;SDS011;57640;52.472;-1.950;2023-05-10T15:54:22;3.67;;;2.30;;
61330;SDS011;57640;52.472;-1.950;2023-05-10T15:57:28;3.50;;;2.00;;
61330;SDS011;57640;52.472;-1.950;2023-05-10T16:00:33;5.20;;;1.95;;
61330;SDS011;57640;52.472;-1.950;2023-05-10T16:03:41;7.22;;;2.00;;
61330;SDS011;57640;52.472;-1.950;2023-05-10T16:06:47;3.38;;;1.90;;
61330;SDS011;57640;52.472;-1.950;2023-05-10T16:09:52;3.60;;;1.40;;
61330;SDS011;57640;52.472;-1.950;2023-05-10T16:12:57;2.10;;;1.48;;
61330;SDS011;57640;52.472;-1.950;2023-05-10T16:16:03;2.22;;;1.30;;
61330;SDS011;57640;52.472;-1.950;2023-05-10T16:19:12;2.38;;;1.55;;
61330;SDS011;57640;52.472;-1.950;2023-05-10T16:22:31;2.13;;;1.30;;
61330;SDS011;57640;52.472;-1.950;2023-05-10T20:55:20;3.78;;;1.35;;
61330;SDS011;57640;52.472;-1.950;2023-05-10T20:58:39;4.60;;;1.40;;
61330;SDS011;57640;52.472;-1.950;2023-05-10T21:05:16;3.97;;;1.20;;
61330;SDS011;57640;52.472;-1.950;2023-05-10T21:08:35;1.63;;;1.20;;
61330;SDS011;57640;52.472;-1.950;2023-05-10T21:11:56;3.22;;;1.30;;
61330;SDS011;57640;52.472;-1.950;2023-05-10T21:15:15;3.33;;;1.20;;
61330;SDS011;57640;52.472;-1.950;2023-05-10T21:18:34;2.30;;;1.15;;
61330;SDS011;57640;52.472;-1.950;2023-05-10T21:21:53;2.58;;;1.17;;
61330;SDS011;57640;52.472;-1.950;2023-05-10T21:25:13;2.75;;;1.30;;
61330;SDS011;57640;52.472;-1.950;2023-05-10T21:28:34;1.65;;;1.05;;
61330;SDS011;57640;52.472;-1.950;2023-05-10T21:31:53;2.78;;;1.15;;
61330;SDS011;57640;52.472;-1.950;2023-05-10T21:35:11;1.48;;;1.00;;
61330;SDS011;57640;52.472;-1.950;2023-05-10T21:38:31;1.88;;;1.05;;
61330;SDS011;57640;52.472;-1.950;2023-05-10T21:41:49;1.85;;;1.08;;
61330;SDS011;57640;52.472;-1.950;2023-05-10T21:45:11;2.78;;;1.45;;
61330;SDS011;57640;52.472;-1.950;2023-05-10T21:48:29;2.97;;;1.30;;
61330;SDS011;57640;52.472;-1.950;2023-05-10T21:55:06;1.83;;;1.10;;
61330;SDS011;57640;52.472;-1.950;2023-05-10T21:58:25;1.73;;;1.10;;
61330;SDS011;57640;52.472;-1.950;2023-05-10T22:05:05;2.95;;;1.10;;
61330;SDS011;57640;52.472;-1.950;2023-05-10T22:08:23;2.58;;;1.20;;
61330;SDS011;57640;52.472;-1.950;2023-05-10T22:11:42;4.07;;;1.00;;
61330;SDS011;57640;52.472;-1.950;2023-05-10T22:15:00;2.30;;;1.00;;
61330;SDS011;57640;52.472;-1.950;2023-05-10T22:21:40;2.40;;;1.30;;
61330;SDS011;57640;52.472;-1.950;2023-05-10T22:24:58;3.95;;;1.92;;
61330;SDS011;57640;52.472;-1.950;2023-05-10T22:28:17;3.10;;;2.03;;
61330;SDS011;57640;52.472;-1.950;2023-05-10T22:31:35;3.80;;;2.10;;
61330;SDS011;57640;52.472;-1.950;2023-05-10T22:34:55;2.85;;;1.33;;
61330;SDS011;57640;52.472;-1.950;2023-05-10T22:38:16;2.50;;;1.42;;
61330;SDS011;57640;52.472;-1.950;2023-05-10T22:41:34;2.03;;;1.58;;
61330;SDS011;57640;52.472;-1.950;2023-05-10T22:48:11;1.95;;;1.25;;
61330;SDS011;57640;52.472;-1.950;2023-05-10T22:51:30;3.10;;;1.50;;
61330;SDS011;57640;52.472;-1.950;2023-05-10T22:54:52;2.53;;;1.30;;
61330;SDS011;57640;52.472;-1.950;2023-05-10T22:58:10;2.22;;;1.23;;
61330;SDS011;57640;52.472;-1.950;2023-05-10T23:01:15;2.72;;;1.25;;
61330;SDS011;57640;52.472;-1.950;2023-05-10T23:04:22;3.03;;;1.38;;
61330;SDS011;57640;52.472;-1.950;2023-05-10T23:07:30;1.90;;;1.30;;
61330;SDS011;57640;52.472;-1.950;2023-05-10T23:10:38;1.63;;;1.30;;
61330;SDS011;57640;52.472;-1.950;2023-05-10T23:13:44;2.22;;;1.25;;
61330;SDS011;57640;52.472;-1.950;2023-05-10T23:16:51;1.67;;;1.00;;
61330;SDS011;57640;52.472;-1.950;2023-05-10T23:19:57;2.22;;;1.10;;
61330;SDS011;57640;52.472;-1.950;2023-05-10T23:23:04;2.72;;;1.40;;
61330;SDS011;57640;52.472;-1.950;2023-05-10T23:26:13;1.95;;;1.30;;
61330;SDS011;57640;52.472;-1.950;2023-05-10T23:29:20;2.20;;;1.50;;
61330;SDS011;57640;52.472;-1.950;2023-05-10T23:32:28;2.05;;;1.48;;
61330;SDS011;57640;52.472;-1.950;2023-05-10T23:35:35;2.38;;;1.45;;